Terminal Aerodrome Forecast
Issued by NWS Midland/Odessa, TX

Home | Current Version | Previous Version | Text Only | Print | Product List | Glossary On
Versions: 1 2 3 4 5 6 7 8 9 10 11 12 13 14 15 16 17 18 19 20 21 22 23 24 25 26 27
047
FTUS44 KMAF 310606 AAA
TAFMAF
TAF AMD
KMAF 310606Z 3106/0106 12006KT P6SM VCTS SCT050 BKN100CB
     FM310700 15011KT P6SM SCT060 BKN250
      TEMPO 3109/3113 BKN025
     FM312100 18011KT P6SM SCT060 SCT250 PROB30 3121/3124 TSRA
      BKN030CB=

USA.gov is the U.S. government's official web portal to all federal, state and local government web resources and services.